createdAt,value
2022-08-23T00:01:24.695Z,4.10
2022-08-23T00:03:54.202Z,3.78
2022-08-23T00:06:23.376Z,4.45
2022-08-23T00:08:52.715Z,3.72
2022-08-23T00:11:29.865Z,4.28
2022-08-23T00:13:59.838Z,4.15
2022-08-23T00:16:29.767Z,4.22
2022-08-23T00:18:57.987Z,4.45
2022-08-23T00:21:26.001Z,4.72
2022-08-23T00:23:54.007Z,4.10
2022-08-23T00:26:22.139Z,4.50
2022-08-23T00:28:50.338Z,4.97
2022-08-23T00:31:18.425Z,5.05
2022-08-23T00:33:47.682Z,4.65
2022-08-23T00:36:15.599Z,4.95
2022-08-23T00:38:43.491Z,4.90
2022-08-23T00:41:11.426Z,4.95
2022-08-23T00:44:00.346Z,4.10
2022-08-23T00:47:00.515Z,4.47
2022-08-23T00:49:30.931Z,4.47
2022-08-23T00:52:07.516Z,4.22
2022-08-23T00:54:38.874Z,4.20
2022-08-23T00:57:09.555Z,3.80
2022-08-23T00:59:37.958Z,3.92
2022-08-23T01:02:06.941Z,4.30
2022-08-23T01:04:44.458Z,3.97
2022-08-23T01:07:18.690Z,4.35
2022-08-23T01:09:48.642Z,4.75
2022-08-23T01:12:32.820Z,4.38
2022-08-23T01:15:06.905Z,4.43
2022-08-23T01:17:39.842Z,3.92
2022-08-23T01:20:13.799Z,3.95
2022-08-23T01:22:47.565Z,4.28
2022-08-23T01:25:21.606Z,4.18
2022-08-23T01:27:51.130Z,4.38
2022-08-23T01:30:22.611Z,4.90
2022-08-23T01:32:53.487Z,4.63
2022-08-23T01:37:58.041Z,4.35
2022-08-23T01:40:27.567Z,4.32
2022-08-23T01:42:55.782Z,4.40
2022-08-23T01:45:23.761Z,4.85
2022-08-23T01:47:51.691Z,4.15
2022-08-23T01:50:19.807Z,4.82
2022-08-23T01:52:47.790Z,4.93
2022-08-23T01:55:16.225Z,4.68
2022-08-23T01:57:48.413Z,4.80
2022-08-23T02:00:18.743Z,5.40
2022-08-23T02:02:46.971Z,4.78
2022-08-23T02:05:18.803Z,5.00
2022-08-23T02:07:47.470Z,5.20
2022-08-23T02:10:16.159Z,5.22
2022-08-23T02:12:46.663Z,5.07
2022-08-23T02:15:16.055Z,4.72
2022-08-23T02:17:46.330Z,5.32
2022-08-23T02:20:14.841Z,4.95
2022-08-23T02:22:43.126Z,4.78
2022-08-23T02:25:11.408Z,5.25
2022-08-23T02:27:43.995Z,5.22
2022-08-23T02:30:14.719Z,5.47
2022-08-23T02:32:42.744Z,5.57
2022-08-23T02:35:11.837Z,5.40
2022-08-23T02:37:39.742Z,4.78
2022-08-23T02:40:09.505Z,5.45
2022-08-23T02:42:37.469Z,5.07
2022-08-23T02:45:08.350Z,5.45
2022-08-23T02:47:37.911Z,4.70
2022-08-23T02:50:06.482Z,4.65
2022-08-23T02:52:34.441Z,4.88
2022-08-23T02:55:02.388Z,4.78
2022-08-23T02:57:31.525Z,4.78
2022-08-23T02:59:59.593Z,4.60
2022-08-23T03:02:27.575Z,4.65
2022-08-23T03:04:56.999Z,4.65
2022-08-23T03:07:25.000Z,4.57
2022-08-23T03:09:53.071Z,4.80
2022-08-23T03:12:21.129Z,4.95
2022-08-23T03:14:51.158Z,4.95
2022-08-23T03:17:21.137Z,4.38
2022-08-23T03:19:49.256Z,4.97
2022-08-23T03:22:18.529Z,4.05
2022-08-23T03:24:46.714Z,5.28
2022-08-23T03:27:14.639Z,4.53
2022-08-23T03:29:42.699Z,4.40
2022-08-23T03:32:10.618Z,4.60
2022-08-23T03:34:38.515Z,4.63
2022-08-23T03:37:06.413Z,4.82
2022-08-23T03:39:35.738Z,4.60
2022-08-23T03:42:04.111Z,5.20
2022-08-23T03:44:32.025Z,4.90
2022-08-23T03:47:00.100Z,4.45
2022-08-23T03:49:28.177Z,4.68
2022-08-23T03:51:56.107Z,5.20
2022-08-23T03:54:24.135Z,4.93
2022-08-23T03:56:56.078Z,5.38
2022-08-23T03:59:24.031Z,5.50
2022-08-23T04:01:51.974Z,5.50
2022-08-23T04:04:19.948Z,5.10
2022-08-23T04:06:47.953Z,5.35
2022-08-23T04:09:16.520Z,5.70
2022-08-23T04:11:45.167Z,5.28
2022-08-23T04:14:14.538Z,5.22
2022-08-23T04:16:43.137Z,5.00
2022-08-23T04:19:14.101Z,5.20
2022-08-23T04:21:45.341Z,5.82
2022-08-23T04:24:13.952Z,4.95
2022-08-23T04:26:41.936Z,5.07
2022-08-23T04:29:23.018Z,5.07
2022-08-23T04:32:05.644Z,5.13
2022-08-23T04:34:36.314Z,5.85
2022-08-23T04:37:04.390Z,6.15
2022-08-23T04:39:58.659Z,5.30
2022-08-23T04:42:26.057Z,5.03
2022-08-23T04:44:54.146Z,5.40
2022-08-23T04:47:23.699Z,5.95
2022-08-23T04:49:51.594Z,5.90
2022-08-23T04:52:19.855Z,5.32
2022-08-23T04:54:47.890Z,6.03
2022-08-23T04:57:16.448Z,6.18
2022-08-23T04:59:44.402Z,6.43
2022-08-23T05:02:12.551Z,6.32
2022-08-23T05:04:42.360Z,6.72
2022-08-23T05:07:10.815Z,6.20
2022-08-23T05:09:38.799Z,8.10
2022-08-23T05:12:07.058Z,7.43
2022-08-23T05:14:34.994Z,8.05
2022-08-23T05:17:03.434Z,7.78
2022-08-23T05:19:32.502Z,7.15
2022-08-23T05:22:01.781Z,7.45
2022-08-23T05:24:29.694Z,8.63
2022-08-23T05:26:57.614Z,6.85
2022-08-23T05:29:25.913Z,8.07
2022-08-23T05:31:57.076Z,7.65
2022-08-23T05:34:25.574Z,9.10
2022-08-23T05:36:55.844Z,8.55
2022-08-23T05:39:36.111Z,9.50
2022-08-23T05:42:04.917Z,9.57
2022-08-23T05:44:36.714Z,9.55
2022-08-23T05:47:10.188Z,10.27
2022-08-23T05:49:39.398Z,10.63
2022-08-23T05:52:09.310Z,10.50
2022-08-23T05:54:39.048Z,11.48
2022-08-23T05:57:07.539Z,10.95
2022-08-23T05:59:35.827Z,11.15
2022-08-23T06:02:03.722Z,11.43
2022-08-23T06:04:31.875Z,11.52
2022-08-23T06:06:59.833Z,11.52
2022-08-23T06:09:28.057Z,10.02
2022-08-23T06:11:58.712Z,9.20
2022-08-23T06:14:26.922Z,10.63
2022-08-23T06:16:56.263Z,10.95
2022-08-23T06:19:25.217Z,13.77
2022-08-23T06:21:53.819Z,13.07
2022-08-23T06:24:21.899Z,13.48
2022-08-23T06:26:49.830Z,12.13
2022-08-23T06:29:21.150Z,11.95
2022-08-23T06:31:51.493Z,12.15
2022-08-23T06:34:21.832Z,11.85
2022-08-23T06:36:52.404Z,10.60
2022-08-23T06:39:22.621Z,10.15
2022-08-23T06:41:50.987Z,8.73
2022-08-23T06:44:21.427Z,8.25
2022-08-23T06:46:49.461Z,8.10
2022-08-23T06:49:17.921Z,7.70
2022-08-23T06:51:49.117Z,6.32
2022-08-23T06:54:20.311Z,6.53
2022-08-23T06:56:49.386Z,6.07
2022-08-23T06:59:18.731Z,5.82
2022-08-23T07:01:52.101Z,5.53
2022-08-23T07:04:22.794Z,4.93
2022-08-23T07:06:51.074Z,4.63
2022-08-23T07:09:19.652Z,5.07
2022-08-23T07:11:47.867Z,5.88
2022-08-23T07:14:20.267Z,5.65
2022-08-23T07:16:51.383Z,5.65
2022-08-23T07:19:21.250Z,5.10
2022-08-23T07:21:50.198Z,5.30
2022-08-23T07:24:19.002Z,4.80
2022-08-23T07:26:48.476Z,5.07
2022-08-23T07:29:17.474Z,4.50
2022-08-23T07:31:50.487Z,4.40
2022-08-23T07:34:18.729Z,3.80
2022-08-23T07:36:48.203Z,4.55
2022-08-23T07:39:17.535Z,4.15
2022-08-23T07:41:46.836Z,3.85
2022-08-23T07:44:17.420Z,3.03
2022-08-23T07:46:47.254Z,3.70
2022-08-23T07:49:16.821Z,3.20
2022-08-23T07:51:48.936Z,3.45
2022-08-23T07:56:46.402Z,3.45
2022-08-23T07:59:14.379Z,2.85
2022-08-23T08:01:44.960Z,3.00
2022-08-23T08:04:12.946Z,3.20
2022-08-23T08:06:46.106Z,2.50
2022-08-23T08:09:15.357Z,2.70
2022-08-23T08:11:45.395Z,2.28
2022-08-23T08:14:14.006Z,2.33
2022-08-23T08:16:44.361Z,2.65
2022-08-23T08:19:15.084Z,2.47
2022-08-23T08:21:47.078Z,2.30
2022-08-23T08:24:16.882Z,2.50
2022-08-23T08:26:46.091Z,2.80
2022-08-23T08:29:14.775Z,2.50
2022-08-23T08:31:45.382Z,2.70
2022-08-23T08:34:14.165Z,2.70
2022-08-23T08:36:46.170Z,2.95
2022-08-23T08:42:04.681Z,2.10
2022-08-23T08:44:39.435Z,2.22
2022-08-23T08:47:11.271Z,2.58
2022-08-23T08:49:45.205Z,2.47
2022-08-23T08:52:19.620Z,2.30
2022-08-23T08:54:50.218Z,2.17
2022-08-23T08:57:27.607Z,2.10
2022-08-23T09:00:01.045Z,1.98
2022-08-23T09:02:33.678Z,1.90
2022-08-23T09:05:04.775Z,2.05
2022-08-23T09:07:44.191Z,1.95
2022-08-23T09:10:29.268Z,2.05
2022-08-23T09:13:05.332Z,2.25
2022-08-23T09:15:40.679Z,2.65
2022-08-23T09:18:11.014Z,2.20
2022-08-23T09:20:39.707Z,2.28
2022-08-23T09:23:12.085Z,2.10
2022-08-23T09:25:40.295Z,1.75
2022-08-23T09:28:08.336Z,2.20
2022-08-23T09:30:49.505Z,1.77
2022-08-23T09:33:19.079Z,2.42
2022-08-23T09:36:08.562Z,2.33
2022-08-23T09:38:40.592Z,1.85
2022-08-23T09:41:20.384Z,2.60
2022-08-23T09:43:50.238Z,2.50
2022-08-23T09:46:26.713Z,1.65
2022-08-23T09:48:58.244Z,1.77
2022-08-23T09:51:30.599Z,1.83
2022-08-23T09:54:11.370Z,1.88
2022-08-23T09:56:45.041Z,1.67
2022-08-23T09:59:28.825Z,1.77
2022-08-23T10:01:59.714Z,1.80
2022-08-23T10:04:42.527Z,2.17
2022-08-23T10:07:28.963Z,1.77
2022-08-23T10:10:20.186Z,1.63
2022-08-23T10:12:48.461Z,1.92
2022-08-23T10:15:18.213Z,1.80
2022-08-23T10:17:55.544Z,1.70
2022-08-23T10:20:32.624Z,2.00
2022-08-23T10:23:12.623Z,2.10
2022-08-23T10:25:46.343Z,2.00
2022-08-23T10:28:40.221Z,2.00
2022-08-23T10:31:15.731Z,2.25
2022-08-23T10:33:51.586Z,2.03
2022-08-23T10:36:25.525Z,1.75
2022-08-23T10:38:57.866Z,1.95
2022-08-23T10:41:48.250Z,2.22
2022-08-23T10:44:26.533Z,1.95
2022-08-23T10:47:05.798Z,2.10
2022-08-23T10:49:37.106Z,2.10
2022-08-23T10:52:08.855Z,1.85
2022-08-23T10:54:47.149Z,2.20
2022-08-23T10:57:20.729Z,2.05
2022-08-23T10:59:51.744Z,2.00
2022-08-23T11:02:28.060Z,2.03
2022-08-23T11:05:02.647Z,2.35
2022-08-23T11:07:34.203Z,2.65
2022-08-23T11:10:17.287Z,2.80
2022-08-23T11:12:58.360Z,2.70
2022-08-23T11:15:44.601Z,2.95
2022-08-23T11:18:39.121Z,3.28
2022-08-23T11:21:10.982Z,2.83
2022-08-23T11:24:19.024Z,2.60
2022-08-23T11:27:07.966Z,2.47
2022-08-23T11:29:41.366Z,2.50
2022-08-23T11:32:34.370Z,2.97
2022-08-23T11:35:30.533Z,2.70
2022-08-23T11:38:04.883Z,2.58
2022-08-23T11:40:58.794Z,2.80
2022-08-23T11:43:36.206Z,3.45
2022-08-23T11:46:32.851Z,3.17
2022-08-23T11:49:22.515Z,3.03
2022-08-23T11:52:01.655Z,3.20
2022-08-23T11:54:48.274Z,4.47
2022-08-23T11:57:24.619Z,3.00
2022-08-23T12:00:10.857Z,3.30
2022-08-23T12:03:02.276Z,3.90
2022-08-23T12:05:56.974Z,3.63
2022-08-23T12:08:34.666Z,3.95
2022-08-23T12:11:07.005Z,4.28
2022-08-23T12:13:49.706Z,4.40
2022-08-23T12:16:50.103Z,4.35
2022-08-23T12:19:35.814Z,4.07
2022-08-23T12:22:11.646Z,5.10
2022-08-23T12:24:46.798Z,3.45
2022-08-23T12:27:31.668Z,3.45
2022-08-23T12:30:08.733Z,3.10
2022-08-23T12:32:45.257Z,3.33
2022-08-23T12:35:31.899Z,3.10
2022-08-23T12:38:07.285Z,3.10
2022-08-23T12:40:42.104Z,3.53
2022-08-23T12:43:20.847Z,3.30
2022-08-23T12:45:53.289Z,3.13
2022-08-23T12:48:24.362Z,3.33
2022-08-23T12:50:58.296Z,3.50
2022-08-23T12:53:33.071Z,4.00
2022-08-23T12:56:03.701Z,3.83
2022-08-23T12:58:34.829Z,4.05
2022-08-23T13:01:06.082Z,3.67
2022-08-23T13:03:38.862Z,5.05
2022-08-23T13:06:11.186Z,4.88
2022-08-23T13:08:43.818Z,5.57
2022-08-23T13:13:42.770Z,4.88
2022-08-23T13:16:30.534Z,4.95
2022-08-23T13:19:16.855Z,5.82
2022-08-23T13:21:46.644Z,6.55
2022-08-23T13:24:38.586Z,7.93
2022-08-23T13:27:20.954Z,6.28
2022-08-23T13:32:36.433Z,4.35
2022-08-23T13:35:31.212Z,4.22
2022-08-23T13:38:09.650Z,4.35
2022-08-23T13:40:42.524Z,4.07
2022-08-23T13:43:13.734Z,4.70
2022-08-23T13:45:48.474Z,4.30
2022-08-23T13:48:21.133Z,4.07
2022-08-23T13:50:50.351Z,4.20
2022-08-23T13:53:20.682Z,3.50
2022-08-23T13:55:51.927Z,4.50
2022-08-23T13:58:28.988Z,4.03
2022-08-23T14:00:59.024Z,4.55
2022-08-23T14:03:28.125Z,4.97
2022-08-23T14:05:56.411Z,3.90
2022-08-23T14:08:25.913Z,3.97
2022-08-23T14:10:53.921Z,3.80
2022-08-23T14:13:28.507Z,3.13
2022-08-23T14:21:36.708Z,3.70
2022-08-23T14:24:06.627Z,3.38
2022-08-23T14:26:34.726Z,3.28
2022-08-23T14:29:02.789Z,4.00
2022-08-23T14:31:31.076Z,3.17
2022-08-23T14:34:02.011Z,3.40
2022-08-23T14:36:30.458Z,3.45
2022-08-23T14:38:58.391Z,3.15
2022-08-23T14:41:29.613Z,3.00
2022-08-23T14:43:57.602Z,2.83
2022-08-23T14:46:25.691Z,4.20
2022-08-23T14:48:53.660Z,2.70
2022-08-23T14:51:26.716Z,3.13
2022-08-23T14:53:54.886Z,3.63
2022-08-23T14:56:23.526Z,3.13
2022-08-23T14:58:53.551Z,3.80
2022-08-23T15:01:21.988Z,3.60
2022-08-23T15:03:50.798Z,4.10
2022-08-23T15:06:20.680Z,4.28
2022-08-23T15:08:49.297Z,4.47
2022-08-23T15:14:06.542Z,4.38
2022-08-23T15:16:35.155Z,4.25
2022-08-23T15:19:03.229Z,3.10
2022-08-23T15:21:31.237Z,3.65
2022-08-23T15:23:59.166Z,3.92
2022-08-23T15:26:29.651Z,3.33
2022-08-23T15:28:57.753Z,4.05
2022-08-23T15:31:27.366Z,3.30
2022-08-23T15:33:55.506Z,3.20
2022-08-23T15:36:23.809Z,4.35
2022-08-23T15:38:52.225Z,4.20
2022-08-23T15:41:21.616Z,2.53
2022-08-23T15:43:49.698Z,3.78
2022-08-23T15:46:21.549Z,3.78
2022-08-23T15:48:57.002Z,3.17
2022-08-23T15:51:25.767Z,2.72
2022-08-23T15:53:54.130Z,2.67
2022-08-23T15:56:29.801Z,2.78
2022-08-23T15:58:58.327Z,2.28
2022-08-23T16:01:28.854Z,2.30
2022-08-23T16:03:58.387Z,2.75
2022-08-23T16:06:26.863Z,3.47
2022-08-23T16:08:54.873Z,2.72
2022-08-23T16:11:24.122Z,2.22
2022-08-23T16:13:53.714Z,1.80
2022-08-23T16:16:27.261Z,2.83
2022-08-23T16:18:56.954Z,2.35
2022-08-23T16:21:28.558Z,2.00
2022-08-23T16:23:57.505Z,2.00
2022-08-23T16:26:34.792Z,2.85
2022-08-23T16:29:05.549Z,2.78
2022-08-23T16:31:38.817Z,2.38
2022-08-23T16:34:09.999Z,3.22
2022-08-23T16:36:40.120Z,3.72
2022-08-23T16:39:08.675Z,2.58
2022-08-23T16:41:36.673Z,3.50
2022-08-23T16:44:05.396Z,3.50
2022-08-23T16:46:33.575Z,7.43
2022-08-23T16:49:02.369Z,2.65
2022-08-23T16:51:30.385Z,2.97
2022-08-23T16:54:02.665Z,2.20
2022-08-23T16:56:31.921Z,3.03
2022-08-23T16:59:00.124Z,2.55
2022-08-23T17:01:29.582Z,2.83
2022-08-23T17:03:57.574Z,3.13
2022-08-23T17:06:25.555Z,2.42
2022-08-23T17:08:53.446Z,2.30
2022-08-23T17:11:23.040Z,2.17
2022-08-23T17:13:53.287Z,2.38
2022-08-23T17:16:22.516Z,2.97
2022-08-23T17:18:50.782Z,2.70
2022-08-23T17:21:22.145Z,2.63
2022-08-23T17:23:50.064Z,2.50
2022-08-23T17:26:18.509Z,2.55
2022-08-23T17:28:48.210Z,2.53
2022-08-23T17:31:17.609Z,3.03
2022-08-23T17:33:46.332Z,2.80
2022-08-23T17:36:24.719Z,3.72
2022-08-23T17:38:52.623Z,2.22
2022-08-23T17:41:20.551Z,3.60
2022-08-23T17:43:49.788Z,2.90
2022-08-23T17:46:17.908Z,2.83
2022-08-23T17:48:45.901Z,3.30
2022-08-23T17:51:13.917Z,2.65
2022-08-23T17:53:41.837Z,3.95
2022-08-23T17:56:11.674Z,3.22
2022-08-23T17:58:40.463Z,2.75
2022-08-23T18:01:11.008Z,2.78
2022-08-23T18:03:39.015Z,3.05
2022-08-23T18:06:16.218Z,2.50
2022-08-23T18:08:46.058Z,2.30
2022-08-23T18:11:14.318Z,2.33
2022-08-23T18:13:42.353Z,2.13
2022-08-23T18:16:14.225Z,1.90
2022-08-23T18:18:42.564Z,1.80
2022-08-23T18:21:12.010Z,1.58
2022-08-23T18:23:40.320Z,1.83
2022-08-23T18:26:30.419Z,1.77
2022-08-23T18:28:57.941Z,1.65
2022-08-23T18:31:27.537Z,2.33
2022-08-23T18:34:00.325Z,1.63
2022-08-23T18:36:30.153Z,1.80
2022-08-23T18:38:58.762Z,1.50
2022-08-23T18:41:26.712Z,1.48
2022-08-23T18:43:54.843Z,1.50
2022-08-23T18:46:23.295Z,1.75
2022-08-23T18:48:53.675Z,1.52
2022-08-23T18:51:23.721Z,1.48
2022-08-23T18:53:51.811Z,1.30
2022-08-23T18:56:19.833Z,1.30
2022-08-23T18:58:49.062Z,1.30
2022-08-23T19:01:25.420Z,1.52
2022-08-23T19:03:55.990Z,1.50
2022-08-23T19:06:24.275Z,1.40
2022-08-23T19:08:53.000Z,1.40
2022-08-23T19:11:22.207Z,1.45
2022-08-23T19:13:51.092Z,1.38
2022-08-23T19:16:20.240Z,1.48
2022-08-23T19:18:51.536Z,1.58
2022-08-23T19:21:23.142Z,1.50
2022-08-23T19:23:53.027Z,1.42
2022-08-23T19:26:25.686Z,1.40
2022-08-23T19:28:53.731Z,1.38
2022-08-23T19:31:21.680Z,1.58
2022-08-23T19:33:50.949Z,1.50
2022-08-23T19:36:44.813Z,1.58
2022-08-23T19:39:08.877Z,1.52
2022-08-23T19:41:37.043Z,1.77
2022-08-23T19:44:05.524Z,1.70
2022-08-23T19:46:33.473Z,1.95
2022-08-23T19:49:01.781Z,1.42
2022-08-23T19:51:37.069Z,1.35
2022-08-23T19:54:11.649Z,1.50
2022-08-23T19:56:42.459Z,1.50
2022-08-23T19:59:13.732Z,1.50
2022-08-23T20:01:42.033Z,1.50
2022-08-23T20:04:10.971Z,1.58
2022-08-23T20:06:40.773Z,1.50
2022-08-23T20:09:09.361Z,1.50
2022-08-23T20:11:37.363Z,1.67
2022-08-23T20:14:07.659Z,2.08
2022-08-23T20:16:36.307Z,1.50
2022-08-23T20:19:06.846Z,1.52
2022-08-23T20:21:34.916Z,1.52
2022-08-23T20:24:04.367Z,1.30
2022-08-23T20:26:35.414Z,1.30
2022-08-23T20:29:05.222Z,1.80
2022-08-23T20:31:36.389Z,1.70
2022-08-23T20:34:06.167Z,1.30
2022-08-23T20:36:34.186Z,1.08
2022-08-23T20:39:04.531Z,1.10
2022-08-23T20:41:34.560Z,1.40
2022-08-23T20:44:03.432Z,1.50
2022-08-23T20:46:31.496Z,1.52
2022-08-23T20:48:59.761Z,1.45
2022-08-23T20:51:28.520Z,1.60
2022-08-23T20:53:57.250Z,1.45
2022-08-23T20:56:28.665Z,1.40
2022-08-23T20:58:56.669Z,1.75
2022-08-23T21:01:24.954Z,1.67
2022-08-23T21:03:53.109Z,1.45
2022-08-23T21:06:23.463Z,1.50
2022-08-23T21:08:54.996Z,1.80
2022-08-23T21:11:26.011Z,2.00
2022-08-23T21:13:56.853Z,2.17
2022-08-23T21:16:25.622Z,2.00
2022-08-23T21:18:56.665Z,2.20
2022-08-23T21:21:25.287Z,2.08
2022-08-23T21:23:53.641Z,2.25
2022-08-23T21:26:23.351Z,1.95
2022-08-23T21:28:51.386Z,2.00
2022-08-23T21:31:22.532Z,1.90
2022-08-23T21:33:51.232Z,2.00
2022-08-23T21:36:20.560Z,2.15
2022-08-23T21:38:48.710Z,2.00
2022-08-23T21:41:32.131Z,1.73
2022-08-23T21:44:00.266Z,1.67
2022-08-23T21:46:29.637Z,1.92
2022-08-23T21:48:57.605Z,1.92
2022-08-23T21:51:25.542Z,1.85
2022-08-23T21:53:53.553Z,1.60
2022-08-23T21:56:21.544Z,1.83
2022-08-23T21:58:50.526Z,1.70
2022-08-23T22:01:19.656Z,2.00
2022-08-23T22:03:50.021Z,1.77
2022-08-23T22:06:20.812Z,2.40
2022-08-23T22:08:49.376Z,2.40
2022-08-23T22:11:17.569Z,2.05
2022-08-23T22:13:45.570Z,2.22
2022-08-23T22:16:13.608Z,2.00
2022-08-23T22:18:42.765Z,1.70
2022-08-23T22:21:12.889Z,1.88
2022-08-23T22:23:43.320Z,1.70
2022-08-23T22:26:13.703Z,1.70
2022-08-23T22:28:44.677Z,1.48
2022-08-23T22:31:14.334Z,1.50
2022-08-23T22:33:43.135Z,1.40
2022-08-23T22:36:16.545Z,1.40
2022-08-23T22:38:44.609Z,1.30
2022-08-23T22:41:16.287Z,1.60
2022-08-23T22:43:44.195Z,1.50
2022-08-23T22:46:12.948Z,1.35
2022-08-23T22:48:41.355Z,1.50
2022-08-23T22:51:13.070Z,1.70
2022-08-23T22:53:45.330Z,1.80
2022-08-23T22:58:41.910Z,1.80
2022-08-23T23:01:12.939Z,1.50
2022-08-23T23:03:41.892Z,1.70
2022-08-23T23:06:10.519Z,1.88
2022-08-23T23:08:38.486Z,1.80
2022-08-23T23:11:10.063Z,1.42
2022-08-23T23:13:38.594Z,1.85
2022-08-23T23:16:08.502Z,1.60
2022-08-23T23:18:37.160Z,1.80
2022-08-23T23:21:05.153Z,1.90
2022-08-23T23:23:34.648Z,1.90
2022-08-23T23:26:03.658Z,1.80
2022-08-23T23:28:32.973Z,1.70
2022-08-23T23:31:00.886Z,2.50
2022-08-23T23:33:28.836Z,1.90
2022-08-23T23:35:56.967Z,1.90
2022-08-23T23:38:24.954Z,1.77
2022-08-23T23:40:52.991Z,1.90
2022-08-23T23:43:20.874Z,1.83
2022-08-23T23:45:50.262Z,1.88
2022-08-23T23:48:18.206Z,1.90
2022-08-23T23:50:46.734Z,1.92
2022-08-23T23:53:15.720Z,2.22
2022-08-23T23:55:44.357Z,1.77
2022-08-23T23:58:12.592Z,2.00
